createdAt,value
2019-03-22T00:01:52.555Z,6.40
2019-03-22T00:04:44.073Z,6.40
2019-03-22T00:07:29.557Z,6.40
2019-03-22T00:10:22.196Z,6.30
2019-03-22T00:13:05.777Z,6.30
2019-03-22T00:15:57.340Z,6.30
2019-03-22T00:18:41.496Z,6.30
2019-03-22T00:21:33.262Z,6.20
2019-03-22T00:24:18.828Z,6.20
2019-03-22T00:27:03.248Z,6.10
2019-03-22T00:29:54.973Z,6.00
2019-03-22T00:32:40.198Z,6.00
2019-03-22T00:35:31.887Z,6.00
2019-03-22T00:38:16.036Z,5.90
2019-03-22T00:41:00.438Z,5.90
2019-03-22T00:43:51.964Z,5.80
2019-03-22T00:46:24.883Z,5.80
2019-03-22T00:49:16.591Z,5.80
2019-03-22T00:52:00.993Z,5.70
2019-03-22T00:54:52.617Z,5.70
2019-03-22T00:57:37.102Z,5.60
2019-03-22T01:00:29.063Z,5.60
2019-03-22T01:03:14.362Z,5.60
2019-03-22T01:06:06.111Z,5.50
2019-03-22T01:08:50.646Z,5.50
2019-03-22T01:11:42.469Z,5.40
2019-03-22T01:14:27.831Z,5.30
2019-03-22T01:17:11.395Z,5.30
2019-03-22T01:20:03.091Z,5.30
2019-03-22T01:22:47.475Z,5.30
2019-03-22T01:25:39.210Z,5.30
2019-03-22T01:28:23.462Z,5.30
2019-03-22T01:31:07.975Z,5.30
2019-03-22T01:33:59.723Z,5.20
2019-03-22T01:36:43.633Z,5.20
2019-03-22T01:39:27.442Z,5.20
2019-03-22T01:42:19.129Z,5.20
2019-03-22T01:45:02.646Z,5.20
2019-03-22T01:47:46.542Z,5.20
2019-03-22T01:50:38.312Z,5.20
2019-03-22T01:53:22.429Z,5.10
2019-03-22T01:55:55.352Z,5.10
2019-03-22T01:58:46.988Z,5.10
2019-03-22T02:01:19.823Z,5.00
2019-03-22T02:03:52.496Z,4.90
2019-03-22T02:06:37.884Z,4.80
2019-03-22T02:09:29.602Z,4.80
2019-03-22T02:12:13.241Z,4.80
2019-03-22T02:18:28.126Z,4.80
2019-03-22T02:21:12.239Z,4.70
2019-03-22T02:23:56.423Z,4.70
2019-03-22T02:26:40.893Z,4.70
2019-03-22T02:29:26.222Z,4.70
2019-03-22T02:32:17.708Z,4.70
2019-03-22T02:35:01.414Z,4.70
2019-03-22T02:37:53.129Z,4.60
2019-03-22T02:40:37.599Z,4.70
2019-03-22T02:43:22.230Z,4.60
2019-03-22T02:46:13.835Z,4.60
2019-03-22T02:48:57.999Z,4.60
2019-03-22T02:51:49.621Z,4.50
2019-03-22T02:54:34.878Z,4.50
2019-03-22T02:57:26.587Z,4.40
2019-03-22T03:00:11.310Z,4.40
2019-03-22T03:03:03.094Z,4.40
2019-03-22T03:05:35.931Z,4.40
2019-03-22T03:08:27.515Z,4.40
2019-03-22T03:11:13.025Z,4.40
2019-03-22T03:14:04.694Z,4.40
2019-03-22T03:16:48.796Z,4.40
2019-03-22T03:19:40.330Z,4.20
2019-03-22T03:22:24.131Z,4.20
2019-03-22T03:25:16.085Z,4.10
2019-03-22T03:28:00.025Z,4.10
2019-03-22T03:33:42.002Z,3.90
2019-03-22T03:36:26.105Z,3.90
2019-03-22T03:39:17.818Z,3.90
2019-03-22T03:41:50.653Z,3.80
2019-03-22T03:44:35.201Z,3.90
2019-03-22T03:47:26.778Z,3.90
2019-03-22T03:50:11.158Z,3.90
2019-03-22T03:53:02.992Z,3.90
2019-03-22T03:55:47.291Z,3.80
2019-03-22T03:58:51.639Z,3.80
2019-03-22T04:01:43.323Z,3.80
2019-03-22T04:04:16.192Z,3.80
2019-03-22T04:07:00.541Z,3.80
2019-03-22T04:09:52.465Z,3.70
2019-03-22T04:12:36.723Z,3.70
2019-03-22T04:15:28.261Z,3.60
2019-03-22T04:18:12.042Z,3.70
2019-03-22T04:23:47.573Z,3.70
2019-03-22T04:26:39.157Z,3.70
2019-03-22T04:29:24.253Z,3.70
2019-03-22T04:32:15.947Z,3.60
2019-03-22T04:35:00.088Z,3.60
2019-03-22T04:37:51.873Z,3.50
2019-03-22T04:40:35.643Z,3.50
2019-03-22T04:43:19.499Z,3.50
2019-03-22T04:46:31.760Z,3.50
2019-03-22T04:49:16.171Z,3.50
2019-03-22T04:59:19.229Z,3.40
2019-03-22T05:02:23.457Z,3.40
2019-03-22T05:04:56.581Z,3.50
2019-03-22T05:07:42.761Z,3.40
2019-03-22T05:10:26.912Z,3.40
2019-03-22T05:13:11.877Z,3.40
2019-03-22T05:16:04.013Z,3.40
2019-03-22T05:18:48.820Z,3.40
2019-03-22T05:21:40.764Z,3.40
2019-03-22T05:24:24.632Z,3.40
2019-03-22T05:27:00.178Z,3.30
2019-03-22T05:29:35.893Z,3.30
2019-03-22T05:32:27.511Z,3.40
2019-03-22T05:35:12.799Z,3.40
2019-03-22T05:38:04.697Z,3.40
2019-03-22T05:40:54.870Z,3.40
2019-03-22T05:43:27.691Z,3.40
2019-03-22T05:46:00.571Z,3.40
2019-03-22T05:48:45.534Z,3.40
2019-03-22T05:51:18.337Z,3.40
2019-03-22T05:53:51.135Z,3.40
2019-03-22T05:56:38.948Z,3.40
2019-03-22T05:59:11.721Z,3.60
2019-03-22T06:01:45.453Z,3.80
2019-03-22T06:04:56.794Z,4.00
2019-03-22T06:07:40.667Z,4.30
2019-03-22T06:10:13.501Z,4.60
2019-03-22T06:12:46.277Z,4.70
2019-03-22T06:15:19.317Z,5.00
2019-03-22T06:17:52.195Z,5.30
2019-03-22T06:20:24.780Z,5.60
2019-03-22T06:22:57.734Z,6.00
2019-03-22T06:25:30.504Z,6.30
2019-03-22T06:28:03.368Z,6.60
2019-03-22T06:30:36.139Z,7.00
2019-03-22T06:33:08.808Z,7.30
2019-03-22T06:35:41.499Z,7.50
2019-03-22T06:38:14.315Z,7.80
2019-03-22T06:40:59.186Z,8.00
2019-03-22T06:43:31.966Z,8.00
2019-03-22T06:46:04.801Z,8.10
2019-03-22T06:48:56.394Z,8.10
2019-03-22T06:51:29.154Z,8.00
2019-03-22T06:54:31.057Z,7.90
2019-03-22T06:57:14.331Z,7.90
2019-03-22T06:59:46.993Z,7.90
2019-03-22T07:02:31.709Z,7.90
2019-03-22T07:05:04.763Z,7.90
2019-03-22T07:07:37.582Z,7.90
2019-03-22T07:10:29.323Z,7.70
2019-03-22T07:13:02.058Z,7.70
2019-03-22T07:15:53.860Z,7.60
2019-03-22T07:18:42.248Z,7.60
2019-03-22T07:21:34.223Z,7.50
2019-03-22T07:24:18.835Z,7.50
2019-03-22T07:27:10.538Z,7.50
2019-03-22T07:29:55.923Z,7.60
2019-03-22T07:32:48.183Z,7.50
2019-03-22T07:35:40.954Z,7.50
2019-03-22T07:38:32.659Z,7.50
2019-03-22T07:41:17.744Z,7.60
2019-03-22T07:44:00.381Z,7.60
2019-03-22T07:46:52.152Z,7.70
2019-03-22T07:49:36.172Z,7.70
2019-03-22T07:52:21.367Z,7.90
2019-03-22T07:55:13.145Z,8.00
2019-03-22T07:57:57.823Z,8.00
2019-03-22T08:00:49.339Z,8.00
2019-03-22T08:06:22.511Z,8.10
2019-03-22T08:09:08.968Z,8.20
2019-03-22T08:15:26.561Z,8.40
2019-03-22T08:18:12.166Z,8.50
2019-03-22T08:20:56.553Z,8.50
2019-03-22T08:23:48.328Z,8.60
2019-03-22T08:26:37.284Z,8.60
2019-03-22T08:29:30.630Z,8.70
2019-03-22T08:32:15.034Z,8.80
2019-03-22T08:35:06.699Z,8.80
2019-03-22T08:37:52.732Z,8.80
2019-03-22T08:40:43.647Z,8.90
2019-03-22T08:43:27.940Z,9.00
2019-03-22T08:46:19.537Z,9.10
2019-03-22T08:49:04.879Z,9.10
2019-03-22T08:51:57.498Z,9.20
2019-03-22T08:54:42.574Z,9.30
2019-03-22T08:57:34.227Z,9.40
2019-03-22T09:00:18.574Z,9.40
2019-03-22T09:03:02.723Z,9.50
2019-03-22T09:05:54.269Z,9.60
2019-03-22T09:08:38.067Z,9.70
2019-03-22T09:11:29.662Z,9.80
2019-03-22T09:14:13.722Z,10.00
2019-03-22T09:16:57.630Z,10.20
2019-03-22T09:19:42.036Z,10.30
2019-03-22T09:22:33.786Z,10.50
2019-03-22T09:25:17.957Z,10.50
2019-03-22T09:28:10.483Z,10.60
2019-03-22T09:31:14.083Z,10.80
2019-03-22T09:34:06.905Z,10.90
2019-03-22T09:36:50.520Z,11.00
2019-03-22T09:39:42.222Z,11.10
2019-03-22T09:42:25.964Z,11.20
2019-03-22T09:45:17.756Z,11.30
2019-03-22T09:48:00.732Z,11.50
2019-03-22T09:50:34.569Z,11.60
2019-03-22T09:53:19.810Z,11.70
2019-03-22T09:55:52.683Z,11.80
2019-03-22T09:58:38.199Z,12.00
2019-03-22T10:01:29.975Z,12.00
2019-03-22T10:04:14.071Z,12.20
2019-03-22T10:07:05.994Z,12.30
2019-03-22T10:09:50.585Z,12.50
2019-03-22T10:12:42.332Z,12.60
2019-03-22T10:15:29.849Z,12.70
2019-03-22T10:18:22.118Z,12.80
2019-03-22T10:21:05.886Z,12.90
2019-03-22T10:23:58.027Z,13.00
2019-03-22T10:26:42.227Z,13.10
2019-03-22T10:29:26.617Z,13.20
2019-03-22T10:32:18.342Z,13.30
2019-03-22T10:35:02.760Z,13.30
2019-03-22T10:37:46.596Z,13.30
2019-03-22T10:40:38.363Z,13.40
2019-03-22T10:43:22.402Z,13.50
2019-03-22T10:46:14.214Z,13.60
2019-03-22T10:48:59.177Z,13.80
2019-03-22T10:51:32.117Z,13.90
2019-03-22T10:54:23.644Z,14.10
2019-03-22T10:57:07.988Z,14.20
2019-03-22T10:59:59.696Z,14.40
2019-03-22T11:02:44.006Z,14.40
2019-03-22T11:05:36.707Z,14.50
2019-03-22T11:08:20.587Z,14.60
2019-03-22T11:11:12.398Z,14.70
2019-03-22T11:13:56.571Z,14.80
2019-03-22T11:16:48.347Z,14.90
2019-03-22T11:19:32.935Z,15.00
2019-03-22T11:22:24.544Z,15.10
2019-03-22T11:25:12.550Z,15.30
2019-03-22T11:27:56.487Z,15.40
2019-03-22T11:30:29.402Z,15.50
2019-03-22T11:33:20.962Z,15.50
2019-03-22T11:36:04.873Z,15.50
2019-03-22T11:38:49.178Z,15.50
2019-03-22T11:41:40.889Z,15.60
2019-03-22T11:44:26.315Z,15.80
2019-03-22T11:47:18.057Z,15.90
2019-03-22T11:49:50.943Z,16.10
2019-03-22T11:52:23.945Z,16.30
2019-03-22T11:55:08.499Z,16.40
2019-03-22T11:58:00.225Z,16.30
2019-03-22T12:00:44.207Z,16.20
2019-03-22T12:03:35.869Z,16.30
2019-03-22T12:06:19.695Z,16.40
2019-03-22T12:09:11.498Z,16.40
2019-03-22T12:11:55.674Z,16.40
2019-03-22T12:14:40.357Z,16.40
2019-03-22T12:17:32.474Z,16.40
2019-03-22T12:20:24.240Z,16.60
2019-03-22T12:23:08.420Z,16.70
2019-03-22T12:26:00.204Z,16.70
2019-03-22T12:28:44.013Z,16.60
2019-03-22T12:31:28.096Z,16.60
2019-03-22T12:34:19.808Z,16.50
2019-03-22T12:37:03.500Z,16.60
2019-03-22T12:39:55.155Z,16.70
2019-03-22T12:42:38.912Z,16.70
2019-03-22T12:45:23.155Z,16.80
2019-03-22T12:48:14.866Z,16.90
2019-03-22T12:50:57.662Z,16.90
2019-03-22T12:53:41.818Z,17.10
2019-03-22T12:59:36.807Z,17.30
2019-03-22T13:02:28.578Z,17.30
2019-03-22T13:05:12.384Z,17.30
2019-03-22T13:08:04.039Z,17.40
2019-03-22T13:10:48.496Z,17.40
2019-03-22T13:13:40.155Z,17.60
2019-03-22T13:16:24.440Z,17.70
2019-03-22T13:19:16.138Z,17.90
2019-03-22T13:28:10.344Z,18.00
2019-03-22T13:31:03.679Z,18.20
2019-03-22T13:33:36.874Z,18.30
2019-03-22T13:36:09.848Z,18.30
2019-03-22T13:38:43.102Z,18.40
2019-03-22T13:41:15.891Z,18.40
2019-03-22T13:44:00.513Z,18.40
2019-03-22T13:46:52.042Z,18.40
2019-03-22T13:49:37.393Z,18.40
2019-03-22T13:52:10.295Z,18.40
2019-03-22T13:54:54.797Z,18.50
2019-03-22T13:57:46.511Z,18.50
2019-03-22T14:00:30.830Z,18.40
2019-03-22T14:03:22.627Z,18.40
2019-03-22T14:06:06.190Z,18.60
2019-03-22T14:08:58.139Z,18.60
2019-03-22T14:11:41.833Z,18.70
2019-03-22T14:14:33.758Z,18.70
2019-03-22T14:17:18.055Z,18.70
2019-03-22T14:20:20.621Z,18.70
2019-03-22T14:23:14.327Z,18.70
2019-03-22T14:25:58.989Z,18.80
2019-03-22T14:28:47.955Z,18.90
2019-03-22T14:31:31.775Z,18.90
2019-03-22T14:34:27.650Z,18.90
2019-03-22T14:37:13.930Z,18.90
2019-03-22T14:40:05.952Z,18.90
2019-03-22T14:42:51.743Z,18.90
2019-03-22T14:45:43.381Z,18.90
2019-03-22T14:48:27.247Z,18.90
2019-03-22T14:51:18.831Z,19.00
2019-03-22T14:53:51.732Z,19.00
2019-03-22T14:56:43.758Z,19.00
2019-03-22T14:59:27.384Z,19.00
2019-03-22T15:02:19.016Z,19.00
2019-03-22T15:05:03.304Z,18.90
2019-03-22T15:07:54.947Z,18.90
2019-03-22T15:10:43.281Z,19.00
2019-03-22T15:13:53.798Z,19.00
2019-03-22T15:16:59.845Z,19.00
2019-03-22T15:19:54.765Z,18.90
2019-03-22T15:23:03.166Z,18.90
2019-03-22T15:26:13.714Z,18.90
2019-03-22T15:29:16.780Z,18.90
2019-03-22T15:32:27.257Z,18.90
2019-03-22T15:38:35.171Z,18.80
2019-03-22T15:41:17.982Z,18.70
2019-03-22T15:44:09.634Z,18.60
2019-03-22T15:46:54.053Z,18.60
2019-03-22T15:49:45.856Z,18.60
2019-03-22T15:52:30.234Z,18.60
2019-03-22T15:55:02.924Z,18.60
2019-03-22T15:57:47.059Z,18.50
2019-03-22T16:00:31.623Z,18.60
2019-03-22T16:03:23.299Z,18.60
2019-03-22T16:06:07.297Z,18.50
2019-03-22T16:08:58.997Z,18.40
2019-03-22T16:11:32.582Z,18.40
2019-03-22T16:14:24.408Z,18.50
2019-03-22T16:17:07.982Z,18.40
2019-03-22T16:19:52.062Z,18.40
2019-03-22T16:22:44.772Z,18.40
2019-03-22T16:25:29.858Z,18.40
2019-03-22T16:28:21.581Z,18.40
2019-03-22T16:31:05.384Z,18.40
2019-03-22T16:33:56.995Z,18.30
2019-03-22T16:36:40.757Z,18.20
2019-03-22T16:39:32.385Z,18.20
2019-03-22T16:42:16.639Z,18.10
2019-03-22T16:45:09.069Z,18.10
2019-03-22T16:47:53.408Z,18.10
2019-03-22T16:50:45.015Z,18.00
2019-03-22T16:53:30.422Z,17.90
2019-03-22T16:56:03.245Z,17.80
2019-03-22T16:58:47.408Z,17.80
2019-03-22T17:01:39.483Z,17.70
2019-03-22T17:04:23.826Z,17.70
2019-03-22T17:07:15.640Z,17.60
2019-03-22T17:09:59.802Z,17.50
2019-03-22T17:12:43.870Z,17.40
2019-03-22T17:15:35.624Z,17.30
2019-03-22T17:18:19.993Z,17.20
2019-03-22T17:21:03.989Z,17.10
2019-03-22T17:23:55.744Z,17.00
2019-03-22T17:26:40.687Z,16.90
2019-03-22T17:29:24.409Z,16.80
2019-03-22T17:32:16.123Z,16.70
2019-03-22T17:34:59.826Z,16.70
2019-03-22T17:37:43.746Z,16.60
2019-03-22T17:40:54.417Z,16.50
2019-03-22T17:43:39.951Z,16.40
2019-03-22T17:46:23.625Z,16.30
2019-03-22T17:49:08.254Z,16.20
2019-03-22T17:51:59.894Z,16.10
2019-03-22T17:54:44.069Z,16.00
2019-03-22T17:57:35.664Z,15.90
2019-03-22T18:00:22.405Z,15.70
2019-03-22T18:03:14.138Z,15.60
2019-03-22T18:06:00.227Z,15.50
2019-03-22T18:08:52.176Z,15.40
2019-03-22T18:11:37.887Z,15.30
2019-03-22T18:14:21.870Z,15.20
2019-03-22T18:17:14.723Z,15.10
2019-03-22T18:19:58.711Z,15.00
2019-03-22T18:22:43.132Z,14.90
2019-03-22T18:25:34.952Z,14.80
2019-03-22T18:28:20.694Z,14.70
2019-03-22T18:31:28.089Z,14.50
2019-03-22T18:34:34.300Z,14.40
2019-03-22T18:40:02.291Z,14.30
2019-03-22T18:42:53.903Z,14.20
2019-03-22T18:45:40.819Z,14.10
2019-03-22T18:48:44.928Z,14.00
2019-03-22T18:51:37.713Z,13.80
2019-03-22T18:54:33.171Z,13.80
2019-03-22T18:57:21.452Z,13.70
2019-03-22T19:00:15.284Z,13.60
2019-03-22T19:03:01.981Z,13.50
2019-03-22T19:05:53.641Z,13.50
2019-03-22T19:08:59.960Z,13.40
2019-03-22T19:11:53.548Z,13.30
2019-03-22T19:14:41.278Z,13.30
2019-03-22T19:17:34.602Z,13.20
2019-03-22T19:20:25.144Z,13.10
2019-03-22T19:23:16.898Z,13.00
2019-03-22T19:26:02.893Z,13.00
2019-03-22T19:31:50.004Z,12.80
2019-03-22T19:34:36.469Z,12.70
2019-03-22T19:37:25.643Z,12.70
2019-03-22T19:40:15.428Z,12.60
2019-03-22T19:43:02.465Z,12.50
2019-03-22T19:48:58.497Z,12.40
2019-03-22T19:54:54.719Z,12.20
2019-03-22T19:57:43.000Z,12.20
2019-03-22T20:03:38.063Z,12.10
2019-03-22T20:06:29.746Z,12.00
2019-03-22T20:09:14.263Z,11.90
2019-03-22T20:12:05.962Z,11.90
2019-03-22T20:14:50.099Z,11.80
2019-03-22T20:17:41.928Z,11.70
2019-03-22T20:20:27.399Z,11.60
2019-03-22T20:23:19.217Z,11.60
2019-03-22T20:26:04.211Z,11.60
2019-03-22T20:28:50.124Z,11.50
2019-03-22T20:31:34.368Z,11.50
2019-03-22T20:34:26.210Z,11.40
2019-03-22T20:37:10.732Z,11.30
2019-03-22T20:39:55.053Z,11.30
2019-03-22T20:42:46.823Z,11.30
2019-03-22T20:45:32.675Z,11.20
2019-03-22T20:48:24.216Z,11.20
2019-03-22T20:50:57.021Z,11.10
2019-03-22T20:53:29.869Z,11.10
2019-03-22T20:56:02.624Z,11.00
2019-03-22T20:58:35.332Z,11.00
2019-03-22T21:01:20.865Z,10.90
2019-03-22T21:04:12.512Z,10.90
2019-03-22T21:06:56.936Z,10.80
2019-03-22T21:09:29.989Z,10.80
2019-03-22T21:12:03.951Z,10.80
2019-03-22T21:14:36.797Z,10.80
2019-03-22T21:17:21.197Z,10.70
2019-03-22T21:23:58.080Z,10.60
2019-03-22T21:26:46.562Z,10.60
2019-03-22T21:30:00.644Z,10.50
2019-03-22T21:32:52.458Z,10.40
2019-03-22T21:35:39.529Z,10.40
2019-03-22T21:38:23.267Z,10.30
2019-03-22T21:40:56.389Z,10.20
2019-03-22T21:43:48.262Z,10.20
2019-03-22T21:46:35.591Z,10.10
2019-03-22T21:49:27.299Z,10.10
2019-03-22T21:52:12.449Z,10.10
2019-03-22T21:55:04.170Z,10.10
2019-03-22T21:57:47.845Z,10.00
2019-03-22T22:00:39.571Z,10.00
2019-03-22T22:03:23.304Z,9.90
2019-03-22T22:06:14.967Z,9.90
2019-03-22T22:08:59.276Z,9.90
2019-03-22T22:11:50.902Z,9.80
2019-03-22T22:14:40.709Z,9.80
2019-03-22T22:17:28.877Z,9.70
2019-03-22T22:20:12.721Z,9.70
2019-03-22T22:23:04.816Z,9.60
2019-03-22T22:25:50.035Z,9.60
2019-03-22T22:28:34.008Z,9.50
2019-03-22T22:31:18.239Z,9.50
2019-03-22T22:34:02.712Z,9.50
2019-03-22T22:36:47.001Z,9.50
2019-03-22T22:39:38.624Z,9.40
2019-03-22T22:42:11.588Z,9.30
2019-03-22T22:44:56.809Z,9.30
2019-03-22T22:47:29.621Z,9.30
2019-03-22T22:50:14.305Z,9.20
2019-03-22T22:53:06.170Z,9.20
2019-03-22T22:55:50.179Z,9.10
2019-03-22T22:58:34.958Z,9.10
2019-03-22T23:01:26.633Z,9.00
2019-03-22T23:04:11.892Z,9.00
2019-03-22T23:07:03.760Z,9.00
2019-03-22T23:09:48.244Z,8.90
2019-03-22T23:12:39.853Z,8.90
2019-03-22T23:15:24.334Z,8.90
2019-03-22T23:18:16.067Z,8.90
2019-03-22T23:20:49.092Z,8.80
2019-03-22T23:23:41.052Z,8.80
2019-03-22T23:26:24.584Z,8.70
2019-03-22T23:29:09.845Z,8.70
2019-03-22T23:32:01.832Z,8.60
2019-03-22T23:34:46.458Z,8.50
2019-03-22T23:37:38.145Z,8.50
2019-03-22T23:40:23.070Z,8.40
2019-03-22T23:42:55.924Z,8.40
2019-03-22T23:45:28.875Z,8.40
2019-03-22T23:48:21.456Z,8.30
2019-03-22T23:51:05.258Z,8.30
2019-03-22T23:53:57.022Z,8.30
2019-03-22T23:56:41.605Z,8.20
2019-03-22T23:59:33.147Z,8.20
